createdAt,value
2019-02-11T00:02:29.731Z,1.49
2019-02-11T00:06:32.287Z,1.46
2019-02-11T00:10:34.820Z,1.47
2019-02-11T00:14:37.361Z,1.46
2019-02-11T00:18:39.776Z,1.45
2019-02-11T00:22:42.300Z,1.42
2019-02-11T00:26:49.028Z,1.38
2019-02-11T00:30:51.528Z,1.38
2019-02-11T00:34:53.926Z,1.38
2019-02-11T00:38:56.419Z,1.34
2019-02-11T00:42:58.836Z,1.33
2019-02-11T00:47:01.535Z,1.32
2019-02-11T00:51:04.104Z,1.30
2019-02-11T00:55:07.235Z,1.33
2019-02-11T00:59:09.799Z,1.33
2019-02-11T01:03:12.296Z,1.31
2019-02-11T01:07:14.704Z,1.31
2019-02-11T01:11:17.197Z,1.29
2019-02-11T01:15:20.910Z,1.28
2019-02-11T01:19:23.420Z,1.25
2019-02-11T01:23:25.939Z,1.27
2019-02-11T01:27:28.409Z,1.26
2019-02-11T01:31:30.862Z,1.20
2019-02-11T01:35:34.963Z,1.16
2019-02-11T01:39:37.582Z,1.12
2019-02-11T01:43:40.295Z,1.09
2019-02-11T01:47:43.091Z,1.08
2019-02-11T01:51:45.809Z,1.08
2019-02-11T01:55:48.254Z,1.12
2019-02-11T01:59:51.065Z,1.13
2019-02-11T02:03:53.512Z,1.13
2019-02-11T02:07:56.038Z,1.13
2019-02-11T02:11:58.410Z,1.15
2019-02-11T02:16:00.998Z,1.15
2019-02-11T02:20:03.467Z,1.17
2019-02-11T02:24:05.980Z,1.17
2019-02-11T02:28:08.523Z,1.16
2019-02-11T02:32:11.097Z,1.13
2019-02-11T02:36:13.635Z,1.16
2019-02-11T02:40:16.143Z,1.17
2019-02-11T02:44:18.567Z,1.17
2019-02-11T02:48:21.111Z,1.17
2019-02-11T02:52:23.522Z,1.17
2019-02-11T02:56:25.990Z,1.17
2019-02-11T03:00:28.799Z,1.16
2019-02-11T03:04:31.337Z,1.18
2019-02-11T03:08:33.754Z,1.16
2019-02-11T03:12:36.293Z,1.16
2019-02-11T03:16:38.730Z,1.18
2019-02-11T03:20:41.306Z,1.18
2019-02-11T03:24:43.856Z,1.16
2019-02-11T03:28:46.351Z,1.16
2019-02-11T03:32:48.764Z,1.15
2019-02-11T03:36:51.284Z,1.14
2019-02-11T03:40:53.844Z,1.13
2019-02-11T03:44:56.443Z,1.16
2019-02-11T03:48:58.881Z,1.16
2019-02-11T03:53:01.483Z,1.14
2019-02-11T03:57:04.079Z,1.16
2019-02-11T04:01:08.589Z,1.16
2019-02-11T04:05:11.212Z,1.13
2019-02-11T04:09:13.738Z,1.12
2019-02-11T04:13:16.404Z,1.11
2019-02-11T04:17:18.947Z,1.10
2019-02-11T04:21:21.378Z,1.11
2019-02-11T04:25:25.545Z,1.12
2019-02-11T04:29:27.981Z,1.14
2019-02-11T04:33:30.698Z,1.12
2019-02-11T04:37:33.128Z,1.12
2019-02-11T04:41:35.805Z,1.14
2019-02-11T04:45:38.360Z,1.15
2019-02-11T04:49:40.888Z,1.14
2019-02-11T04:53:43.300Z,1.14
2019-02-11T04:57:45.800Z,1.15
2019-02-11T05:01:48.698Z,1.12
2019-02-11T05:05:51.219Z,1.09
2019-02-11T05:09:53.653Z,1.12
2019-02-11T05:13:56.242Z,1.10
2019-02-11T05:17:58.783Z,1.07
2019-02-11T05:22:01.255Z,1.08
2019-02-11T05:26:03.787Z,1.06
2019-02-11T05:30:06.729Z,1.04
2019-02-11T05:34:09.197Z,1.01
2019-02-11T05:38:11.820Z,0.99
2019-02-11T05:42:14.301Z,0.95
2019-02-11T05:46:16.824Z,0.93
2019-02-11T05:50:19.244Z,0.89
2019-02-11T05:54:21.734Z,0.85
2019-02-11T05:58:24.226Z,0.82
2019-02-11T06:02:26.807Z,0.79
2019-02-11T06:06:30.708Z,0.78
2019-02-11T06:10:33.358Z,0.78
2019-02-11T06:14:35.750Z,0.76
2019-02-11T06:18:38.253Z,0.74
2019-02-11T06:22:42.044Z,0.70
2019-02-11T06:26:44.535Z,0.70
2019-02-11T06:30:47.076Z,0.71
2019-02-11T06:34:49.674Z,0.70
2019-02-11T06:38:52.079Z,0.69
2019-02-11T06:42:54.743Z,0.68
2019-02-11T06:46:57.150Z,0.67
2019-02-11T06:50:59.839Z,0.68
2019-02-11T06:55:02.254Z,0.69
2019-02-11T06:59:04.934Z,0.68
2019-02-11T07:03:07.363Z,0.68
2019-02-11T07:07:09.854Z,0.71
2019-02-11T07:11:13.656Z,0.72
2019-02-11T07:15:22.193Z,0.73
2019-02-11T07:19:20.416Z,0.74
2019-02-11T07:23:23.014Z,0.77
2019-02-11T07:27:25.438Z,0.77
2019-02-11T07:31:27.982Z,0.78
2019-02-11T07:35:30.425Z,0.78
2019-02-11T07:39:32.921Z,0.77
2019-02-11T07:43:40.790Z,0.79
2019-02-11T07:47:43.423Z,0.81
2019-02-11T07:51:46.053Z,0.82
2019-02-11T07:55:48.556Z,0.88
2019-02-11T07:59:50.984Z,0.89
2019-02-11T08:03:53.585Z,0.94
2019-02-11T08:07:55.994Z,0.95
2019-02-11T08:12:00.336Z,0.96
2019-02-11T08:16:03.064Z,0.99
2019-02-11T08:20:06.696Z,1.02
2019-02-11T08:24:09.114Z,1.03
2019-02-11T08:28:19.216Z,1.03
2019-02-11T08:32:15.864Z,1.01
2019-02-11T08:36:18.510Z,1.04
2019-02-11T08:40:20.983Z,1.01
2019-02-11T08:44:23.700Z,0.99
2019-02-11T08:48:26.211Z,0.98
2019-02-11T08:52:28.788Z,0.98
2019-02-11T08:56:31.208Z,0.96
2019-02-11T09:00:33.707Z,0.95
2019-02-11T09:04:36.275Z,1.00
2019-02-11T09:08:38.925Z,1.03
2019-02-11T09:12:41.339Z,1.02
2019-02-11T09:16:43.926Z,1.00
2019-02-11T09:20:46.739Z,0.99
2019-02-11T09:24:49.268Z,0.94
2019-02-11T09:28:51.740Z,0.92
2019-02-11T09:32:54.360Z,0.93
2019-02-11T09:36:56.988Z,0.94
2019-02-11T09:40:59.496Z,0.94
2019-02-11T09:45:06.390Z,0.91
2019-02-11T09:49:08.904Z,0.95
2019-02-11T09:53:11.464Z,0.95
2019-02-11T09:57:13.960Z,0.94
2019-02-11T10:01:16.404Z,0.94
2019-02-11T10:05:18.936Z,0.98
2019-02-11T10:09:21.518Z,1.04
2019-02-11T10:13:24.043Z,1.06
2019-02-11T10:17:29.789Z,1.06
2019-02-11T10:21:31.356Z,1.09
2019-02-11T10:25:35.323Z,1.16
2019-02-11T10:29:38.788Z,1.18
2019-02-11T10:33:42.079Z,1.12
2019-02-11T10:37:45.006Z,1.09
2019-02-11T10:41:49.087Z,1.09
2019-02-11T10:45:51.708Z,1.01
2019-02-11T10:49:54.334Z,1.00
2019-02-11T10:53:57.524Z,0.99
2019-02-11T10:58:00.424Z,1.00
2019-02-11T11:02:03.084Z,1.02
2019-02-11T11:06:05.835Z,1.00
2019-02-11T11:10:12.862Z,1.00
2019-02-11T11:14:16.179Z,1.03
2019-02-11T11:18:18.803Z,1.01
2019-02-11T11:22:21.439Z,0.98
2019-02-11T11:26:24.013Z,1.00
2019-02-11T11:30:27.094Z,1.02
2019-02-11T11:34:30.179Z,1.02
2019-02-11T11:38:32.588Z,0.99
2019-02-11T11:42:35.415Z,1.04
2019-02-11T11:46:46.775Z,1.05
2019-02-11T11:50:43.333Z,1.06
2019-02-11T11:54:47.103Z,1.14
2019-02-11T11:58:50.511Z,1.18
2019-02-11T12:03:04.176Z,1.19
2019-02-11T12:06:58.527Z,1.20
2019-02-11T12:11:01.968Z,1.17
2019-02-11T12:15:05.062Z,1.17
2019-02-11T12:19:07.507Z,1.19
2019-02-11T12:23:10.032Z,1.19
2019-02-11T12:27:12.493Z,1.19
2019-02-11T12:31:15.258Z,1.26
2019-02-11T12:35:17.710Z,1.33
2019-02-11T12:39:20.231Z,1.38
2019-02-11T12:43:23.005Z,1.41
2019-02-11T12:47:25.680Z,1.44
2019-02-11T12:51:28.095Z,1.34
2019-02-11T12:55:30.679Z,1.35
2019-02-11T12:59:33.236Z,1.38
2019-02-11T13:03:36.003Z,1.36
2019-02-11T13:07:38.533Z,1.43
2019-02-11T13:11:42.127Z,1.37
2019-02-11T13:15:59.908Z,1.32
2019-02-11T13:20:06.709Z,1.29
2019-02-11T13:23:53.428Z,1.27
2019-02-11T13:27:56.101Z,1.19
2019-02-11T13:31:58.826Z,1.19
2019-02-11T13:36:01.348Z,1.19
2019-02-11T13:40:04.017Z,1.16
2019-02-11T13:44:11.379Z,1.18
2019-02-11T13:59:27.569Z,1.14
2019-02-11T14:03:30.249Z,1.13
2019-02-11T14:07:32.981Z,1.09
2019-02-11T14:11:35.716Z,1.05
2019-02-11T14:15:38.263Z,1.00
2019-02-11T14:19:40.686Z,1.01
2019-02-11T14:23:43.552Z,0.98
2019-02-11T14:27:46.028Z,0.94
2019-02-11T14:31:48.600Z,0.91
2019-02-11T14:35:51.801Z,0.94
2019-02-11T14:39:54.743Z,0.91
2019-02-11T14:43:57.292Z,0.88
2019-02-11T14:47:59.940Z,0.88
2019-02-11T14:52:04.568Z,0.85
2019-02-11T14:56:07.281Z,0.81
2019-02-11T15:00:15.286Z,0.81
2019-02-11T15:04:17.892Z,0.77
2019-02-11T15:08:20.311Z,0.74
2019-02-11T15:12:23.071Z,0.70
2019-02-11T15:16:25.432Z,0.71
2019-02-11T15:20:28.154Z,0.72
2019-02-11T15:24:31.367Z,0.71
2019-02-11T15:28:36.938Z,0.68
2019-02-11T15:32:39.560Z,0.68
2019-02-11T15:36:42.006Z,0.67
2019-02-11T15:40:44.746Z,0.67
2019-02-11T15:44:47.464Z,0.66
2019-02-11T15:48:49.852Z,0.63
2019-02-11T15:52:52.436Z,0.62
2019-02-11T15:56:54.881Z,0.62
2019-02-11T16:00:57.487Z,0.64
2019-02-11T16:05:02.218Z,0.64
2019-02-11T16:09:05.314Z,0.61
2019-02-11T16:13:08.162Z,0.60
2019-02-11T16:17:10.690Z,0.62
2019-02-11T16:21:13.093Z,0.61
2019-02-11T16:25:16.042Z,0.62
2019-02-11T16:29:18.570Z,0.62
2019-02-11T16:33:21.075Z,0.58
2019-02-11T16:37:23.464Z,0.57
2019-02-11T16:41:26.196Z,0.52
2019-02-11T16:45:28.672Z,0.52
2019-02-11T16:49:31.182Z,0.53
2019-02-11T16:53:33.696Z,0.58
2019-02-11T16:57:36.262Z,0.57
2019-02-11T17:01:38.655Z,0.57
2019-02-11T17:05:41.141Z,0.53
2019-02-11T17:09:43.542Z,0.54
2019-02-11T17:13:46.118Z,0.53
2019-02-11T17:17:48.607Z,0.54
2019-02-11T17:21:51.093Z,0.54
2019-02-11T17:25:53.516Z,0.54
2019-02-11T17:29:55.977Z,0.52
2019-02-11T17:33:59.578Z,0.51
2019-02-11T17:38:03.166Z,0.50
2019-02-11T17:42:05.991Z,0.52
2019-02-11T17:46:08.693Z,0.49
2019-02-11T17:50:11.953Z,0.50
2019-02-11T17:54:14.817Z,0.50
2019-02-11T17:58:17.321Z,0.49
2019-02-11T18:02:19.851Z,0.50
2019-02-11T18:06:22.249Z,0.51
2019-02-11T18:10:24.777Z,0.50
2019-02-11T18:14:27.150Z,0.50
2019-02-11T18:18:29.671Z,0.51
2019-02-11T18:22:32.108Z,0.50
2019-02-11T18:26:34.666Z,0.51
2019-02-11T18:30:37.311Z,0.52
2019-02-11T18:34:40.027Z,0.51
2019-02-11T18:38:42.412Z,0.51
2019-02-11T18:42:45.151Z,0.51
2019-02-11T18:46:49.487Z,0.53
2019-02-11T18:50:51.875Z,0.52
2019-02-11T18:54:54.300Z,0.52
2019-02-11T18:58:56.866Z,0.51
2019-02-11T19:02:59.434Z,0.49
2019-02-11T19:07:01.940Z,0.49
2019-02-11T19:11:04.375Z,0.49
2019-02-11T19:15:08.313Z,0.48
2019-02-11T19:19:10.866Z,0.48
2019-02-11T19:23:13.649Z,0.46
2019-02-11T19:27:16.039Z,0.46
2019-02-11T19:31:18.624Z,0.44
2019-02-11T19:35:21.744Z,0.44
2019-02-11T19:39:24.179Z,0.44
2019-02-11T19:43:26.569Z,0.45
2019-02-11T19:47:30.490Z,0.45
2019-02-11T19:51:34.233Z,0.46
2019-02-11T19:55:37.804Z,0.46
2019-02-11T19:59:41.654Z,0.45
2019-02-11T20:03:45.205Z,0.46
2019-02-11T20:07:47.979Z,0.46
2019-02-11T20:11:50.381Z,0.45
2019-02-11T20:15:52.970Z,0.45
2019-02-11T20:20:00.412Z,0.45
2019-02-11T20:23:59.572Z,0.45
2019-02-11T20:28:02.061Z,0.46
2019-02-11T20:32:04.740Z,0.43
2019-02-11T20:36:07.359Z,0.45
2019-02-11T20:40:12.672Z,0.44
2019-02-11T20:44:15.132Z,0.45
2019-02-11T20:48:17.592Z,0.43
2019-02-11T20:52:20.050Z,0.45
2019-02-11T20:56:22.435Z,0.42
2019-02-11T21:00:25.545Z,0.42
2019-02-11T21:04:28.044Z,0.41
2019-02-11T21:08:30.521Z,0.44
2019-02-11T21:12:32.890Z,0.46
2019-02-11T21:16:35.370Z,0.46
2019-02-11T21:20:39.492Z,0.45
2019-02-11T21:24:41.988Z,0.46
2019-02-11T21:28:44.367Z,0.46
2019-02-11T21:32:46.968Z,0.47
2019-02-11T21:36:49.502Z,0.45
2019-02-11T21:40:52.695Z,0.47
2019-02-11T21:44:55.078Z,0.49
2019-02-11T21:48:57.532Z,0.48
2019-02-11T21:52:59.884Z,0.46
2019-02-11T21:57:02.581Z,0.48
2019-02-11T22:01:06.688Z,0.49
2019-02-11T22:05:09.280Z,0.49
2019-02-11T22:09:11.765Z,0.49
2019-02-11T22:13:14.206Z,0.51
2019-02-11T22:17:16.564Z,0.48
2019-02-11T22:21:19.001Z,0.50
2019-02-11T22:25:21.394Z,0.52
2019-02-11T22:29:23.852Z,0.52
2019-02-11T22:33:26.241Z,0.54
2019-02-11T22:37:28.944Z,0.55
2019-02-11T22:41:31.453Z,0.53
2019-02-11T22:45:33.968Z,0.53
2019-02-11T22:49:36.366Z,0.52
2019-02-11T22:53:38.917Z,0.49
2019-02-11T22:57:41.345Z,0.49
2019-02-11T23:01:43.911Z,0.48
2019-02-11T23:05:46.442Z,0.46
2019-02-11T23:09:49.118Z,0.44
2019-02-11T23:13:51.505Z,0.44
2019-02-11T23:17:53.937Z,0.42
2019-02-11T23:21:57.018Z,0.41
2019-02-11T23:25:59.808Z,0.39
2019-02-11T23:30:02.168Z,0.34
2019-02-11T23:34:04.857Z,0.32
2019-02-11T23:38:07.584Z,0.30
2019-02-11T23:42:10.322Z,0.27
2019-02-11T23:46:13.178Z,0.23
2019-02-11T23:50:15.926Z,0.19
2019-02-11T23:54:18.279Z,0.17
2019-02-11T23:58:20.769Z,0.14
